Time;durP1;ratioP1;P1;durP2;ratioP2;P2;SDS_P1;SDS_P2;PMS_P1;PMS_P2;Temp;Humidity;BMP_temperature;BMP_pressure;BME280_temperature;BME280_humidity;BME280_pressure;Samples;Min_cycle;Max_cycle;Signal;HPM_P1;HPM_P2
2023/08/16 00:00:59;;;;;;;1.17;1.17;;;;;;;23.92;96.27;95302.72;5101404;28;20449;-53
2023/08/16 00:03:28;;;;;;;0.60;0.50;;;;;;;23.80;94.79;95268.44;5115245;28;20506;-53
2023/08/16 00:05:57;;;;;;;0.50;0.50;;;;;;;24.15;93.03;95309.03;5114892;28;20440;-52
2023/08/16 00:08:25;;;;;;;0.83;0.83;;;;;;;24.16;93.20;95307.13;5115051;28;20448;-53
2023/08/16 00:10:53;;;;;;;0.70;0.70;;;;;;;24.18;92.85;95305.63;5114527;28;20471;-53
2023/08/16 00:13:23;;;;;;;1.70;1.60;;;;;;;23.62;95.23;95266.47;5114409;28;20492;-51
2023/08/16 00:15:51;;;;;;;1.43;1.33;;;;;;;23.58;97.89;95298.84;5113717;28;20489;-52
2023/08/16 00:18:20;;;;;;;1.00;0.80;;;;;;;23.62;98.40;95299.72;5114844;28;20432;-52
2023/08/16 00:20:48;;;;;;;4.20;1.00;;;;;;;23.87;95.53;95301.06;5114273;28;20528;-52
2023/08/16 00:23:17;;;;;;;1.30;1.20;;;;;;;23.57;98.77;95304.63;5114751;28;20548;-51
2023/08/16 00:25:45;;;;;;;1.43;1.37;;;;;;;23.60;98.47;95302.00;5114497;28;20508;-51
2023/08/16 00:28:13;;;;;;;1.17;0.87;;;;;;;23.81;96.46;95297.06;5114618;28;20961;-51
2023/08/16 00:30:43;;;;;;;1.87;1.30;;;;;;;23.88;95.53;95296.44;5113214;28;20500;-51
2023/08/16 00:33:11;;;;;;;6.53;1.30;;;;;;;23.92;94.35;95297.28;5114362;28;20443;-52
2023/08/16 00:35:40;;;;;;;0.50;0.30;;;;;;;24.00;93.83;95299.03;5113806;28;20432;-52
2023/08/16 00:38:08;;;;;;;0.80;0.80;;;;;;;23.88;93.66;95285.63;5113686;28;20436;-52
2023/08/16 00:40:36;;;;;;;0.80;0.77;;;;;;;23.97;93.47;95294.31;5113857;28;20869;-52
2023/08/16 00:43:05;;;;;;;0.63;0.63;;;;;;;23.90;94.79;95288.75;5114444;28;21021;-52
2023/08/16 00:45:33;;;;;;;1.83;0.73;;;;;;;23.88;94.27;95280.97;5113780;28;20519;-52
2023/08/16 00:48:03;;;;;;;0.70;0.67;;;;;;;23.88;94.43;95282.91;5114148;28;20461;-52
2023/08/16 00:50:31;;;;;;;0.50;0.40;;;;;;;23.83;95.10;95289.34;5114363;28;20428;-52
2023/08/16 00:53:02;;;;;;;1.47;0.90;;;;;;;23.89;94.45;95290.66;5100660;28;20512;-52
2023/08/16 00:55:30;;;;;;;0.77;0.77;;;;;;;23.85;94.78;95295.22;5114197;28;21000;-52
2023/08/16 00:57:59;;;;;;;1.67;0.90;;;;;;;23.81;96.31;95291.66;5114058;28;20435;-52
2023/08/16 01:00:28;;;;;;;0.70;0.70;;;;;;;23.52;96.41;95297.56;5113929;28;20504;-52
2023/08/16 01:02:56;;;;;;;1.40;1.30;;;;;;;23.55;97.82;95294.16;5113833;28;20439;-52
2023/08/16 01:05:27;;;;;;;0.63;0.60;;;;;;;23.69;96.19;95293.69;5114095;28;20440;-52
2023/08/16 01:07:55;;;;;;;1.20;0.60;;;;;;;23.68;96.43;95295.59;5113663;28;20519;-52
2023/08/16 01:10:32;;;;;;;0.50;0.40;;;;;;;23.79;94.07;95298.53;5114145;28;20505;-52
2023/08/16 01:13:09;;;;;;;0.60;0.60;;;;;;;23.50;97.85;95296.34;5112853;28;20578;-52
2023/08/16 01:15:41;;;;;;;1.10;1.10;;;;;;;23.24;100.00;95288.75;5113931;28;20496;-52
2023/08/16 01:18:11;;;;;;;0.87;0.60;;;;;;;23.48;97.76;95293.97;5088019;28;20435;-53
2023/08/16 01:20:41;;;;;;;2.63;1.13;;;;;;;23.25;100.00;95296.50;5112184;28;20508;-53
2023/08/16 01:23:16;;;;;;;1.43;1.33;;;;;;;23.14;100.00;95283.88;5113412;28;20436;-53
2023/08/16 01:25:49;;;;;;;8.23;3.07;;;;;;;22.87;100.00;95249.59;5113621;28;20467;-53
2023/08/16 01:28:20;;;;;;;0.60;0.60;;;;;;;23.05;100.00;95299.44;5113743;27;21186;-53
2023/08/16 01:30:48;;;;;;;4.83;1.00;;;;;;;23.15;100.00;95291.59;5113326;28;20493;-52
2023/08/16 01:33:17;;;;;;;0.70;0.70;;;;;;;23.13;100.00;95288.47;5113094;28;21036;-52
2023/08/16 01:35:45;;;;;;;1.70;1.60;;;;;;;23.29;100.00;95293.88;5112990;28;20524;-53
2023/08/16 01:38:14;;;;;;;0.77;0.53;;;;;;;23.15;100.00;95283.50;5113470;28;20436;-52
2023/08/16 01:40:50;;;;;;;4.23;1.93;;;;;;;22.98;100.00;95291.16;5112243;28;20482;-53
2023/08/16 01:43:21;;;;;;;1.23;1.13;;;;;;;23.03;100.00;95272.00;5099287;28;20444;-52
2023/08/16 01:45:51;;;;;;;2.57;1.40;;;;;;;22.85;100.00;95278.88;5104951;28;20445;-53
2023/08/16 01:48:22;;;;;;;1.30;1.13;;;;;;;22.85;100.00;95281.56;5108463;28;20463;-52
2023/08/16 01:50:51;;;;;;;1.00;1.00;;;;;;;23.09;100.00;95276.00;5113258;28;20489;-53
2023/08/16 01:53:20;;;;;;;1.43;0.83;;;;;;;23.25;100.00;95277.56;5113206;28;20879;-53
2023/08/16 01:55:48;;;;;;;0.70;0.70;;;;;;;23.25;100.00;95279.50;5112996;28;20549;-53
2023/08/16 01:58:17;;;;;;;1.20;1.10;;;;;;;23.15;100.00;95280.00;5112509;28;20444;-53
2023/08/16 02:00:47;;;;;;;0.70;0.70;;;;;;;23.21;100.00;95276.72;5112634;28;20447;-53
2023/08/16 02:03:15;;;;;;;0.80;0.73;;;;;;;23.27;100.00;95272.63;5112733;28;20505;-53
2023/08/16 02:05:44;;;;;;;0.97;0.50;;;;;;;23.20;100.00;95272.41;5112677;28;20436;-53
2023/08/16 02:08:12;;;;;;;1.17;1.07;;;;;;;23.09;100.00;95270.59;5112553;28;20439;-53
2023/08/16 02:10:41;;;;;;;0.70;0.63;;;;;;;23.03;100.00;95270.06;5112648;28;20468;-53
2023/08/16 02:13:09;;;;;;;1.17;1.07;;;;;;;23.22;100.00;95263.97;5085416;28;20547;-52
2023/08/16 02:15:37;;;;;;;0.60;0.60;;;;;;;23.25;100.00;95279.50;5112777;28;20948;-53
2023/08/16 02:18:10;;;;;;;0.73;0.67;;;;;;;23.11;100.00;95266.41;5112646;28;20863;-53
2023/08/16 02:20:39;;;;;;;0.80;0.80;;;;;;;22.55;100.00;95279.25;5112075;28;20476;-53
2023/08/16 02:23:08;;;;;;;1.50;1.40;;;;;;;22.34;100.00;95280.59;5112777;27;20945;-53
2023/08/16 02:25:36;;;;;;;2.70;1.43;;;;;;;22.11;100.00;95278.41;5112429;28;20489;-52
2023/08/16 02:28:05;;;;;;;1.73;1.63;;;;;;;21.53;100.00;95274.34;5112176;28;20475;-52
2023/08/16 02:30:33;;;;;;;1.80;1.70;;;;;;;21.71;100.00;95290.28;5112654;28;21074;-52
2023/08/16 02:33:01;;;;;;;3.03;1.30;;;;;;;22.09;100.00;95290.66;5112750;28;20524;-52
2023/08/16 02:35:31;;;;;;;7.43;0.83;;;;;;;22.20;100.00;95299.88;5112281;28;20444;-52
2023/08/16 02:38:00;;;;;;;1.03;0.80;;;;;;;22.11;100.00;95293.84;5112441;28;20460;-52
2023/08/16 02:40:28;;;;;;;1.00;0.90;;;;;;;22.31;100.00;95292.88;5112121;28;20848;-52
2023/08/16 02:42:56;;;;;;;0.50;0.40;;;;;;;21.96;100.00;95246.75;5112250;28;20435;-52
2023/08/16 02:45:25;;;;;;;1.43;1.33;;;;;;;22.34;100.00;95294.09;5111586;28;20485;-53
2023/08/16 02:47:53;;;;;;;0.83;0.83;;;;;;;22.45;100.00;95300.56;5111050;28;20969;-52
2023/08/16 02:50:24;;;;;;;0.50;0.40;;;;;;;22.51;100.00;95294.56;5111519;28;20461;-52
2023/08/16 02:52:53;;;;;;;2.00;1.90;;;;;;;22.22;100.00;95303.00;5111380;28;20468;-52
2023/08/16 02:55:22;;;;;;;1.63;1.53;;;;;;;22.09;100.00;95301.47;5112290;28;20456;-52
2023/08/16 02:57:51;;;;;;;1.93;1.83;;;;;;;21.60;100.00;95295.38;5111828;28;20546;-52
2023/08/16 03:00:19;;;;;;;2.10;1.90;;;;;;;21.34;100.00;95293.03;5104866;28;20444;-53
2023/08/16 03:02:48;;;;;;;1.33;1.23;;;;;;;21.75;100.00;95296.59;5106560;28;20487;-53
2023/08/16 03:05:16;;;;;;;1.83;1.57;;;;;;;22.00;100.00;95298.94;5111872;28;20954;-52
2023/08/16 03:07:44;;;;;;;0.50;0.47;;;;;;;22.20;100.00;95290.97;5111710;28;20439;-52
2023/08/16 03:10:14;;;;;;;1.30;1.07;;;;;;;22.34;100.00;95292.16;5111525;28;20436;-52
2023/08/16 03:12:42;;;;;;;0.50;0.30;;;;;;;22.48;100.00;95292.56;5111328;28;20523;-53
2023/08/16 03:15:11;;;;;;;0.70;0.70;;;;;;;22.47;100.00;95285.56;5112007;28;20535;-53
2023/08/16 03:17:40;;;;;;;0.93;0.73;;;;;;;22.28;100.00;95247.66;5111573;28;20481;-52
2023/08/16 03:20:10;;;;;;;1.27;0.80;;;;;;;22.71;100.00;95287.41;5111748;28;20454;-52
2023/08/16 03:22:38;;;;;;;0.80;0.67;;;;;;;22.74;100.00;95301.00;5111042;28;20477;-52
2023/08/16 03:25:06;;;;;;;0.70;0.70;;;;;;;22.80;100.00;95301.53;5111413;28;20440;-52
2023/08/16 03:27:36;;;;;;;0.90;0.77;;;;;;;22.81;100.00;95296.91;5110782;28;20513;-52
2023/08/16 03:30:06;;;;;;;0.50;0.40;;;;;;;22.81;100.00;95296.91;5111083;28;20444;-52
2023/08/16 03:32:34;;;;;;;0.50;0.50;;;;;;;22.84;100.00;95293.53;5111186;28;20467;-53
2023/08/16 03:35:03;;;;;;;0.80;0.80;;;;;;;22.51;100.00;95254.06;5111846;28;20483;-53
2023/08/16 03:37:32;;;;;;;1.10;1.03;;;;;;;22.83;100.00;95300.84;5111436;28;20427;-53
2023/08/16 03:40:00;;;;;;;0.67;0.60;;;;;;;22.47;100.00;95255.06;5111897;28;20523;-53
2023/08/16 03:42:29;;;;;;;1.20;1.10;;;;;;;22.55;100.00;95306.25;5084958;28;20440;-53
2023/08/16 03:44:59;;;;;;;1.60;1.50;;;;;;;22.43;100.00;95298.22;5110941;28;20534;-53
2023/08/16 03:47:29;;;;;;;1.87;1.77;;;;;;;21.58;100.00;95276.03;5111973;28;20440;-53
2023/08/16 03:49:59;;;;;;;2.50;1.87;;;;;;;21.48;100.00;95298.84;5111142;28;20471;-52
2023/08/16 03:52:27;;;;;;;2.03;1.13;;;;;;;21.82;100.00;95305.69;5111225;28;20444;-52
2023/08/16 03:54:56;;;;;;;0.53;0.47;;;;;;;22.14;100.00;95298.53;5111177;28;20436;-53
2023/08/16 03:57:24;;;;;;;1.20;1.10;;;;;;;22.40;100.00;95308.91;5111010;28;20492;-52
2023/08/16 03:59:54;;;;;;;1.67;1.50;;;;;;;22.52;100.00;95306.94;5111257;28;20538;-52
2023/08/16 04:02:24;;;;;;;1.13;1.00;;;;;;;22.56;100.00;95294.31;5111351;28;20824;-54
2023/08/16 04:04:54;;;;;;;1.10;1.10;;;;;;;22.54;100.00;95307.38;5113581;28;20515;-54
2023/08/16 04:07:23;;;;;;;0.70;0.40;;;;;;;22.63;100.00;95305.34;5114776;28;20909;-54
2023/08/16 04:09:51;;;;;;;2.10;0.90;;;;;;;22.37;100.00;95301.47;5114758;28;20474;-54
2023/08/16 04:12:20;;;;;;;4.23;1.80;;;;;;;22.35;100.00;95301.84;5114950;28;20436;-54
2023/08/16 04:14:48;;;;;;;6.23;0.83;;;;;;;22.62;100.00;95309.16;5088766;28;20470;-53
2023/08/16 04:17:16;;;;;;;0.70;0.67;;;;;;;22.50;100.00;95287.59;5114715;28;20431;-53
2023/08/16 04:19:46;;;;;;;0.70;0.70;;;;;;;22.56;100.00;95310.53;5087968;28;20477;-53
2023/08/16 04:22:14;;;;;;;0.70;0.67;;;;;;;22.56;100.00;95313.25;5114876;28;20494;-53
2023/08/16 04:24:43;;;;;;;3.10;1.40;;;;;;;21.61;100.00;95315.03;5115061;28;20440;-53
2023/08/16 04:27:11;;;;;;;2.03;1.93;;;;;;;20.82;100.00;95259.75;5114214;28;20865;-53
2023/08/16 04:29:40;;;;;;;1.77;1.67;;;;;;;21.55;100.00;95316.41;5108039;28;20475;-53
2023/08/16 04:32:08;;;;;;;1.33;1.23;;;;;;;21.91;100.00;95317.16;5114202;28;20505;-53
2023/08/16 04:34:36;;;;;;;1.33;0.57;;;;;;;21.89;100.00;95278.13;5114741;28;20478;-52
2023/08/16 04:37:06;;;;;;;0.83;0.50;;;;;;;22.50;100.00;95313.81;5114274;28;20471;-54
2023/08/16 04:39:34;;;;;;;1.07;1.07;;;;;;;22.08;100.00;95289.13;5114514;28;20436;-52
2023/08/16 04:42:03;;;;;;;1.10;0.83;;;;;;;22.04;100.00;95310.59;5114010;28;20435;-52
2023/08/16 04:44:31;;;;;;;1.50;0.70;;;;;;;22.36;100.00;95313.44;5114278;28;20497;-52
2023/08/16 04:46:59;;;;;;;0.50;0.50;;;;;;;22.63;100.00;95313.44;5113838;28;20436;-53
2023/08/16 04:49:28;;;;;;;0.50;0.40;;;;;;;22.57;100.00;95278.88;5113473;28;20527;-53
2023/08/16 04:51:56;;;;;;;0.60;0.50;;;;;;;22.91;100.00;95318.03;5113600;28;20523;-52
2023/08/16 04:54:26;;;;;;;0.97;0.97;;;;;;;22.90;100.00;95292.13;5113856;28;20475;-52
2023/08/16 04:56:54;;;;;;;1.43;0.87;;;;;;;23.10;100.00;95308.09;5113907;28;20447;-52
2023/08/16 04:59:23;;;;;;;3.33;0.60;;;;;;;23.22;100.00;95302.63;5113303;28;20446;-53
2023/08/16 05:01:51;;;;;;;0.50;0.40;;;;;;;23.36;100.00;95299.50;5113983;28;20492;-52
2023/08/16 05:04:19;;;;;;;0.70;0.70;;;;;;;23.40;100.00;95313.91;5113795;28;20447;-53
2023/08/16 05:06:47;;;;;;;0.93;0.83;;;;;;;23.44;100.00;95309.34;5113916;28;21009;-54
2023/08/16 05:09:16;;;;;;;1.00;0.60;;;;;;;23.50;99.68;95313.38;5112671;28;20444;-53
2023/08/16 05:11:45;;;;;;;0.50;0.40;;;;;;;23.37;100.00;95309.19;5113617;28;20436;-53
2023/08/16 05:14:14;;;;;;;0.47;0.37;;;;;;;23.50;100.00;95313.38;5113504;28;20479;-52
2023/08/16 05:16:42;;;;;;;1.80;0.70;;;;;;;23.28;100.00;95316.66;5113138;28;20514;-53
2023/08/16 05:19:10;;;;;;;1.97;1.87;;;;;;;22.99;100.00;95308.97;5113309;28;20444;-53
2023/08/16 05:21:39;;;;;;;2.07;1.47;;;;;;;23.08;100.00;95306.88;5114154;28;20864;-53
2023/08/16 05:24:08;;;;;;;4.30;3.03;;;;;;;22.47;100.00;95309.09;5113180;28;20440;-53
2023/08/16 05:26:36;;;;;;;12.33;3.10;;;;;;;22.23;100.00;95301.88;5113743;28;20474;-53
2023/08/16 05:29:06;;;;;;;3.97;2.63;;;;;;;22.31;100.00;95306.38;5112297;28;20424;-52
2023/08/16 05:31:34;;;;;;;3.00;2.90;;;;;;;21.97;100.00;95309.59;5112455;28;20527;-53
2023/08/16 05:34:03;;;;;;;1.47;1.37;;;;;;;22.53;100.00;95303.13;5112462;28;20471;-54
2023/08/16 05:36:31;;;;;;;4.63;3.83;;;;;;;22.28;100.00;95307.03;5113467;28;20867;-54
2023/08/16 05:38:59;;;;;;;4.03;2.77;;;;;;;21.88;100.00;95255.00;5113375;28;20977;-54
2023/08/16 05:41:28;;;;;;;3.03;2.53;;;;;;;22.26;100.00;95300.41;5113430;28;20437;-55
2023/08/16 05:43:57;;;;;;;4.17;2.03;;;;;;;22.49;100.00;95302.22;5112974;28;20432;-53
2023/08/16 05:46:26;;;;;;;3.10;2.90;;;;;;;22.81;100.00;95295.00;5113021;28;20440;-53
2023/08/16 05:48:55;;;;;;;3.23;2.50;;;;;;;22.75;100.00;95299.88;5113060;28;21016;-54
2023/08/16 05:51:23;;;;;;;4.80;2.27;;;;;;;22.96;100.00;95293.44;5113299;28;20443;-54
2023/08/16 05:53:51;;;;;;;1.93;1.83;;;;;;;22.98;100.00;95288.47;5113259;28;20482;-54
2023/08/16 05:56:20;;;;;;;2.90;2.07;;;;;;;23.44;100.00;95287.72;5113053;28;20439;-53
2023/08/16 05:58:48;;;;;;;3.90;1.10;;;;;;;23.62;100.00;95283.50;5112754;28;20439;-53
2023/08/16 06:01:17;;;;;;;2.23;2.13;;;;;;;24.10;100.00;95281.44;5113138;28;20463;-52
2023/08/16 06:03:46;;;;;;;2.13;2.03;;;;;;;24.47;100.00;95274.44;5112824;28;20477;-52
2023/08/16 06:06:15;;;;;;;2.33;1.47;;;;;;;24.36;98.88;95276.94;5112630;28;20496;-51
2023/08/16 06:08:43;;;;;;;14.30;2.93;;;;;;;24.43;100.00;95263.56;5112531;28;20493;-51
2023/08/16 06:11:12;;;;;;;1.40;1.30;;;;;;;24.55;95.42;95221.97;5112341;28;20443;-51
2023/08/16 06:13:40;;;;;;;1.87;1.77;;;;;;;24.70;97.14;95272.56;5101894;28;20444;-51
2023/08/16 06:16:08;;;;;;;7.83;1.67;;;;;;;25.23;93.53;95268.88;5110158;28;20439;-52
2023/08/16 06:18:37;;;;;;;1.57;1.13;;;;;;;25.70;88.17;95270.41;5112667;28;20443;-51
2023/08/16 06:21:09;;;;;;;0.97;0.70;;;;;;;26.00;84.81;95268.50;5112191;28;20440;-51
2023/08/16 06:23:38;;;;;;;1.93;1.83;;;;;;;26.22;83.84;95266.84;5112647;28;20439;-52
2023/08/16 06:26:06;;;;;;;3.30;3.00;;;;;;;26.18;82.86;95264.09;5111782;28;20534;-53
2023/08/16 06:28:34;;;;;;;2.37;2.27;;;;;;;26.24;83.33;95261.81;5112319;28;20446;-52
2023/08/16 06:31:03;;;;;;;1.63;1.53;;;;;;;26.81;81.51;95263.25;5111987;28;20477;-54
2023/08/16 06:33:32;;;;;;;8.97;2.17;;;;;;;27.24;78.68;95262.50;5111692;28;20519;-54
2023/08/16 06:36:00;;;;;;;2.23;2.10;;;;;;;27.26;76.52;95256.66;5112209;28;20540;-54
2023/08/16 06:38:30;;;;;;;1.77;1.67;;;;;;;27.80;75.04;95264.09;5111994;28;20475;-52
2023/08/16 06:40:59;;;;;;;2.50;2.30;;;;;;;27.56;73.23;95260.81;5112160;28;20524;-53
2023/08/16 06:43:27;;;;;;;1.57;1.47;;;;;;;27.61;72.05;95256.94;5112413;28;20443;-54
2023/08/16 06:45:56;;;;;;;1.50;1.40;;;;;;;28.26;71.39;95255.00;5112485;28;20513;-54
2023/08/16 06:48:25;;;;;;;1.10;1.00;;;;;;;28.22;69.32;95210.59;5111332;28;20466;-50
2023/08/16 06:50:54;;;;;;;0.90;0.90;;;;;;;28.80;68.35;95245.06;5111998;28;20427;-55
2023/08/16 06:53:23;;;;;;;2.77;2.27;;;;;;;29.21;67.64;95248.25;5111688;28;20447;-54
2023/08/16 06:55:54;;;;;;;0.97;0.97;;;;;;;29.60;65.82;95240.81;5111847;28;20531;-55
2023/08/16 06:58:22;;;;;;;0.70;0.70;;;;;;;30.00;64.77;95217.72;5112277;28;20492;-55
2023/08/16 07:00:50;;;;;;;7.60;0.97;;;;;;;30.37;61.99;95236.34;5111901;28;20543;-56
2023/08/16 07:03:19;;;;;;;2.10;1.03;;;;;;;30.27;62.53;95210.59;5111555;28;20436;-55
2023/08/16 07:05:47;;;;;;;1.30;0.77;;;;;;;30.48;61.95;95220.69;5111530;28;20473;-55
2023/08/16 07:08:16;;;;;;;0.80;0.80;;;;;;;31.18;59.66;95219.47;5110963;28;20512;-56
2023/08/16 07:10:44;;;;;;;0.50;0.50;;;;;;;31.62;56.92;95199.53;5111987;28;20439;-54
2023/08/16 07:13:14;;;;;;;0.90;0.90;;;;;;;31.72;57.65;95215.88;5111972;28;20476;-54
2023/08/16 07:15:43;;;;;;;1.97;1.20;;;;;;;31.43;57.23;95214.53;5111770;28;20563;-55
2023/08/16 07:18:11;;;;;;;0.70;0.60;;;;;;;31.51;57.92;95212.53;5111668;28;20443;-55
2023/08/16 07:20:40;;;;;;;1.30;1.20;;;;;;;30.98;55.89;95215.69;5111270;28;20477;-55
2023/08/16 07:23:08;;;;;;;1.13;1.13;;;;;;;31.11;57.01;95216.78;5111800;28;20470;-56
2023/08/16 07:25:36;;;;;;;1.03;1.00;;;;;;;31.19;57.72;95210.84;5111692;28;20522;-55
2023/08/16 07:28:06;;;;;;;14.27;1.63;;;;;;;31.61;55.85;95193.28;5111451;28;20440;-56
2023/08/16 07:30:38;;;;;;;0.70;0.70;;;;;;;31.15;54.78;95203.81;5111565;28;20500;-55
2023/08/16 07:33:07;;;;;;;0.77;0.77;;;;;;;31.41;54.61;95168.41;5110989;28;20439;-55
2023/08/16 07:35:36;;;;;;;3.93;3.60;;;;;;;31.60;52.67;95180.00;5110458;28;20559;-54
2023/08/16 07:38:04;;;;;;;3.23;1.87;;;;;;;31.18;53.79;95148.25;5111803;28;20435;-54
2023/08/16 07:40:33;;;;;;;2.03;1.93;;;;;;;31.88;52.31;95196.88;5114781;28;20465;-54
2023/08/16 07:43:01;;;;;;;3.37;1.47;;;;;;;32.66;50.25;95189.72;5115399;28;20529;-53
2023/08/16 07:45:29;;;;;;;0.53;0.50;;;;;;;32.84;49.46;95187.47;5115702;28;20927;-53
2023/08/16 07:47:59;;;;;;;1.47;1.13;;;;;;;32.72;49.72;95117.44;5115229;28;20492;-52
2023/08/16 07:50:27;;;;;;;0.97;0.87;;;;;;;33.67;50.40;95170.81;5115270;28;20513;-53
2023/08/16 07:52:55;;;;;;;1.47;1.37;;;;;;;33.34;48.21;95179.25;5115674;28;20435;-53
2023/08/16 07:55:29;;;;;;;0.80;0.80;;;;;;;33.80;45.56;95166.22;5088715;28;20470;-52
2023/08/16 07:57:57;;;;;;;1.73;1.63;;;;;;;32.46;49.98;95173.84;5115226;28;20488;-52
2023/08/16 08:00:26;;;;;;;0.87;0.80;;;;;;;33.41;47.31;95171.66;5114722;27;20445;-52
2023/08/16 08:02:54;;;;;;;1.13;1.03;;;;;;;33.07;45.12;95163.59;5115018;28;20439;-52
2023/08/16 08:05:30;;;;;;;0.80;0.70;;;;;;;33.14;44.44;95157.97;5115060;28;20442;-52
2023/08/16 08:08:00;;;;;;;0.80;0.67;;;;;;;33.42;43.20;95164.19;5115356;28;20426;-52
2023/08/16 08:10:31;;;;;;;1.60;1.50;;;;;;;32.92;42.94;95126.53;5112102;28;20438;-52
2023/08/16 08:12:59;;;;;;;3.70;0.70;;;;;;;33.24;43.23;95165.25;5115049;27;20431;-51
2023/08/16 08:15:28;;;;;;;5.40;1.23;;;;;;;33.36;43.22;95152.91;5114391;28;20462;-51
2023/08/16 08:17:56;;;;;;;1.87;1.47;;;;;;;32.49;44.51;95162.06;5115020;28;20492;-55
2023/08/16 08:20:24;;;;;;;5.10;1.60;;;;;;;33.07;44.80;95160.06;5114750;28;20442;-55
2023/08/16 08:22:54;;;;;;;1.07;1.07;;;;;;;33.56;42.74;95153.75;5115249;28;20435;-54
2023/08/16 08:25:24;;;;;;;1.73;1.43;;;;;;;32.88;44.91;95141.53;5115013;28;20442;-54
2023/08/16 08:27:53;;;;;;;1.27;1.17;;;;;;;33.31;43.32;95147.09;5088645;28;20959;-53
2023/08/16 08:30:21;;;;;;;0.60;0.47;;;;;;;34.16;42.47;95144.31;5115044;28;20827;-54
2023/08/16 08:32:50;;;;;;;1.00;1.00;;;;;;;33.58;42.02;95143.09;5114938;28;20845;-54
2023/08/16 08:35:18;;;;;;;1.63;0.60;;;;;;;33.81;42.06;95147.75;5114304;27;20462;-54
2023/08/16 08:37:47;;;;;;;7.20;1.40;;;;;;;33.61;41.85;95095.53;5114911;28;20443;-54
2023/08/16 08:40:18;;;;;;;1.23;1.20;;;;;;;33.22;43.25;95145.66;5114745;28;20460;-54
2023/08/16 08:42:47;;;;;;;7.40;0.90;;;;;;;33.65;42.37;95136.72;5114645;28;20492;-53
2023/08/16 08:45:16;;;;;;;1.37;1.17;;;;;;;33.86;41.64;95137.06;5114465;28;20466;-54
2023/08/16 08:47:45;;;;;;;0.97;0.97;;;;;;;33.58;40.80;95145.84;5114649;28;20446;-54
2023/08/16 08:50:13;;;;;;;1.53;1.43;;;;;;;33.32;40.64;95145.91;5113287;28;21037;-54
2023/08/16 08:52:48;;;;;;;2.60;1.27;;;;;;;33.22;40.58;95114.69;5114228;28;20200;-54
2023/08/16 08:55:17;;;;;;;0.60;0.60;;;;;;;34.25;38.69;95119.00;5114100;28;20436;-54
2023/08/16 08:57:50;;;;;;;0.40;0.40;;;;;;;34.76;40.22;95145.00;5114155;28;20666;-53
2023/08/16 09:00:21;;;;;;;0.47;0.40;;;;;;;35.03;39.81;95140.81;5101413;28;20431;-54
2023/08/16 09:02:50;;;;;;;0.70;0.67;;;;;;;35.50;38.40;95126.63;5113782;28;20196;-54
2023/08/16 09:05:22;;;;;;;0.80;0.80;;;;;;;36.07;38.14;95129.44;5114261;28;20193;-54
2023/08/16 09:07:51;;;;;;;0.77;0.77;;;;;;;35.77;38.55;95132.63;5113898;28;20562;-54
2023/08/16 09:10:23;;;;;;;1.03;0.97;;;;;;;36.33;36.03;95121.97;5114288;28;20577;-54
2023/08/16 09:12:51;;;;;;;0.90;0.80;;;;;;;36.52;34.86;95104.44;5113861;27;20197;-54
2023/08/16 09:15:20;;;;;;;0.70;0.67;;;;;;;37.26;35.88;95120.63;5113696;28;20667;-54
2023/08/16 09:17:50;;;;;;;0.60;0.60;;;;;;;36.87;35.31;95105.31;5113235;28;20205;-54
2023/08/16 09:20:19;;;;;;;0.73;0.73;;;;;;;37.22;35.51;95109.69;5113605;28;20250;-55
2023/08/16 09:22:49;;;;;;;0.50;0.43;;;;;;;37.49;35.17;95109.22;5113196;28;20272;-55
2023/08/16 09:25:18;;;;;;;0.90;0.90;;;;;;;37.56;34.10;95100.66;5114007;27;20573;-55
2023/08/16 09:27:47;;;;;;;0.82;0.82;;;;;;;36.64;34.44;95084.34;5113670;28;20689;-54
2023/08/16 09:30:16;;;;;;;0.40;0.40;;;;;;;37.38;32.16;95108.75;5113976;28;20246;-55
2023/08/16 09:32:45;;;;;;;0.43;0.40;;;;;;;37.70;32.98;95110.44;5113452;28;20196;-55
2023/08/16 09:35:14;;;;;;;1.13;1.10;;;;;;;37.65;33.67;95097.19;5113421;28;20193;-55
2023/08/16 09:37:43;;;;;;;0.60;0.43;;;;;;;38.52;33.01;95098.69;5113870;28;20736;-55
2023/08/16 09:40:12;;;;;;;0.60;0.60;;;;;;;38.35;33.19;95093.84;5113368;28;20245;-55
2023/08/16 09:42:41;;;;;;;1.05;0.98;;;;;;;38.59;34.31;95095.63;5112960;28;20235;-55
2023/08/16 09:45:11;;;;;;;1.05;1.05;;;;;;;38.46;31.12;95094.19;5112876;28;20646;-55
2023/08/16 09:47:45;;;;;;;0.50;0.47;;;;;;;38.90;31.99;95089.28;5113490;28;20207;-55
2023/08/16 09:50:21;;;;;;;0.52;0.52;;;;;;;39.89;29.91;95094.97;5112812;28;20730;-55
2023/08/16 09:52:50;;;;;;;2.58;0.93;;;;;;;38.10;30.25;95089.22;5113533;28;20193;-55
2023/08/16 09:55:29;;;;;;;0.68;0.68;;;;;;;37.14;31.68;95094.56;5113368;28;20189;-56
2023/08/16 09:57:58;;;;;;;0.82;0.82;;;;;;;38.05;30.62;95089.81;5112716;28;20217;-55
2023/08/16 10:00:30;;;;;;;0.90;0.60;;;;;;;38.90;30.49;95083.75;5113217;28;20283;-55
2023/08/16 10:02:58;;;;;;;0.63;0.63;;;;;;;39.17;29.97;95081.03;5111735;28;20200;-55
2023/08/16 10:05:27;;;;;;;0.75;0.52;;;;;;;38.89;29.40;95088.53;5113092;28;20195;-55
2023/08/16 10:08:13;;;;;;;0.60;0.60;;;;;;;39.34;29.41;95085.09;5112615;28;20288;-56
2023/08/16 10:10:43;;;;;;;1.17;0.50;;;;;;;39.21;28.53;95084.47;5113085;28;20201;-55
2023/08/16 10:13:12;;;;;;;0.50;0.43;;;;;;;39.39;28.27;95084.50;5112797;28;20200;-55
2023/08/16 10:15:47;;;;;;;0.30;0.30;;;;;;;39.99;27.53;95087.41;5112412;28;20193;-55
2023/08/16 10:18:19;;;;;;;0.40;0.38;;;;;;;39.59;28.25;95078.47;5112766;28;20283;-56
2023/08/16 10:20:49;;;;;;;0.52;0.52;;;;;;;39.89;28.56;95080.31;5112198;28;20876;-54
2023/08/16 10:23:20;;;;;;;0.40;0.40;;;;;;;39.88;27.35;95073.22;5112520;28;20205;-54
2023/08/16 10:25:49;;;;;;;0.63;0.63;;;;;;;38.98;28.26;95046.22;5112657;28;20193;-55
2023/08/16 10:28:21;;;;;;;6.95;0.47;;;;;;;38.85;30.54;95060.19;5112602;28;20235;-54
2023/08/16 10:30:55;;;;;;;1.00;0.82;;;;;;;39.64;27.82;95062.00;5112144;28;20197;-55
2023/08/16 10:33:31;;;;;;;0.50;0.50;;;;;;;39.56;27.42;95057.19;5112402;28;20212;-53
2023/08/16 10:36:00;;;;;;;0.40;0.40;;;;;;;40.38;26.61;95055.09;5085679;28;20193;-54
2023/08/16 10:38:35;;;;;;;0.68;0.68;;;;;;;40.94;26.29;95052.38;5112140;28;20690;-54
2023/08/16 10:41:11;;;;;;;0.70;0.52;;;;;;;41.30;26.88;95045.03;5112340;28;20279;-55
2023/08/16 10:43:47;;;;;;;0.40;0.40;;;;;;;40.92;26.13;95043.72;5111638;28;20215;-55
2023/08/16 10:46:30;;;;;;;0.57;0.57;;;;;;;41.24;25.99;95035.81;5109085;28;20204;-58
2023/08/16 10:49:00;;;;;;;0.30;0.30;;;;;;;41.55;25.99;95038.97;5084833;28;20299;-56
2023/08/16 10:51:29;;;;;;;0.40;0.40;;;;;;;42.12;25.32;95037.53;5112094;28;20247;-55
2023/08/16 10:53:59;;;;;;;4.00;0.57;;;;;;;41.21;26.79;95039.53;5112546;28;20229;-55
2023/08/16 10:56:43;;;;;;;0.50;0.50;;;;;;;41.04;25.25;95039.94;5111653;28;20216;-55
2023/08/16 10:59:12;;;;;;;0.47;0.47;;;;;;;40.31;26.89;95033.94;5112613;28;20196;-55
2023/08/16 11:01:50;;;;;;;0.50;0.50;;;;;;;40.17;26.96;95031.06;5112190;28;20623;-56
2023/08/16 11:04:22;;;;;;;0.50;0.40;;;;;;;40.22;24.20;95034.00;5112310;28;20280;-56
2023/08/16 11:06:52;;;;;;;0.40;0.40;;;;;;;40.33;24.67;95034.25;5085301;28;20192;-57
2023/08/16 11:09:32;;;;;;;0.40;0.40;;;;;;;39.93;24.79;95031.72;5111617;28;20207;-55
2023/08/16 11:12:03;;;;;;;0.30;0.20;;;;;;;40.63;24.39;95017.78;5112100;28;20249;-56
2023/08/16 11:14:34;;;;;;;0.40;0.30;;;;;;;41.35;24.47;95030.47;5111258;28;20204;-56
2023/08/16 11:17:04;;;;;;;0.35;0.35;;;;;;;41.18;24.29;95016.22;5100671;28;20213;-56
2023/08/16 11:19:33;;;;;;;0.40;0.40;;;;;;;41.21;24.37;95020.84;5110016;28;20234;-56
2023/08/16 11:22:03;;;;;;;0.40;0.40;;;;;;;41.81;22.38;95020.50;5111491;28;20197;-56
2023/08/16 11:24:32;;;;;;;0.50;0.50;;;;;;;41.55;22.87;95011.13;5111142;28;20655;-56
2023/08/16 11:27:03;;;;;;;0.30;0.22;;;;;;;41.52;22.82;95020.47;5112420;28;20279;-56
2023/08/16 11:29:31;;;;;;;0.30;0.30;;;;;;;41.46;22.07;95014.78;5085273;28;20196;-55
2023/08/16 11:32:00;;;;;;;0.52;0.50;;;;;;;40.67;23.08;95008.03;5111950;28;20230;-55
2023/08/16 11:34:33;;;;;;;1.48;0.50;;;;;;;40.44;24.70;95014.28;5111862;28;20242;-56
2023/08/16 11:37:02;;;;;;;0.85;0.85;;;;;;;40.35;23.49;94981.03;5111371;28;20212;-55
2023/08/16 11:39:31;;;;;;;6.63;0.60;;;;;;;40.89;22.01;95000.19;5111924;28;20204;-56